Time;durP1;ratioP1;P1;durP2;ratioP2;P2;SDS_P1;SDS_P2;PMS_P1;PMS_P2;Temp;Humidity;BMP_temperature;BMP_pressure;BME280_temperature;BME280_humidity;BME280_pressure;Samples;Min_cycle;Max_cycle;Signal;HPM_P1;HPM_P2
2022/11/05 00:09:28;;;;;;;11.73;6.18;;;;;;;5.46;100.00;101661.63;7376237;19;20514;-73
2022/11/05 00:16:42;;;;;;;9.18;4.15;;;;;;;5.36;100.00;101680.22;7378931;19;20015;-73
2022/11/05 00:16:58;;;;;;;11.32;5.25;;;;;;;5.26;100.00;101691.00;7379954;19;20014;-73
2022/11/05 00:19:28;;;;;;;9.82;4.75;;;;;;;5.27;100.00;101695.38;7380587;19;20019;-73
2022/11/05 00:27:24;;;;;;;11.27;4.97;;;;;;;5.12;100.00;101705.97;7379492;19;20015;-73
2022/11/05 00:29:54;;;;;;;11.63;4.60;;;;;;;5.09;100.00;101716.22;7378180;19;20018;-71
2022/11/05 00:32:23;;;;;;;10.90;4.35;;;;;;;5.05;100.00;101715.97;7375667;19;20024;-71
2022/11/05 00:34:53;;;;;;;10.80;4.20;;;;;;;5.00;100.00;101717.47;7377666;19;20015;-71
2022/11/05 00:37:23;;;;;;;9.88;4.20;;;;;;;4.96;100.00;101724.22;7375578;19;20458;-71
2022/11/05 00:39:52;;;;;;;8.73;4.32;;;;;;;4.91;100.00;101721.38;7379320;19;20022;-71
2022/11/05 00:45:08;;;;;;;9.57;4.50;;;;;;;4.85;100.00;101726.28;7378786;19;20017;-71
2022/11/05 00:50:23;;;;;;;;;;;;;;;4.81;100.00;101719.16;7378979;19;20020;-71
2022/11/05 00:52:58;;;;;;;11.27;4.13;;;;;;;4.81;100.00;101716.53;7379344;19;19923;-71
2022/11/05 00:55:39;;;;;;;9.93;4.50;;;;;;;4.78;100.00;101715.50;7379622;19;20593;-71
2022/11/05 00:58:14;;;;;;;10.35;4.40;;;;;;;4.76;100.00;101722.31;7380704;19;20030;-71
2022/11/05 01:00:45;;;;;;;10.52;4.55;;;;;;;4.76;100.00;101724.94;7378066;19;20021;-71
2022/11/05 01:03:17;;;;;;;9.82;4.15;;;;;;;4.75;100.00;101728.34;7377461;19;20311;-71
2022/11/05 01:05:49;;;;;;;8.75;4.32;;;;;;;4.72;100.00;101729.06;7376272;19;20031;-70
2022/11/05 01:08:22;;;;;;;8.15;4.00;;;;;;;4.74;100.00;101726.56;7377838;19;20014;-70
2022/11/05 01:10:53;;;;;;;9.43;4.43;;;;;;;4.73;100.00;101730.84;7378318;19;20025;-72
2022/11/05 01:13:27;;;;;;;14.88;4.82;;;;;;;4.73;100.00;101728.25;7378708;19;20006;-73
2022/11/05 01:15:59;;;;;;;11.23;4.63;;;;;;;4.78;100.00;101729.38;7383290;19;20074;-73
2022/11/05 01:18:28;;;;;;;8.32;4.03;;;;;;;4.72;100.00;101734.28;7377132;19;20015;-73
2022/11/05 01:20:59;;;;;;;12.02;4.63;;;;;;;4.69;100.00;101728.03;7377220;19;20006;-73
2022/11/05 01:23:30;;;;;;;7.50;4.35;;;;;;;4.64;100.00;101726.91;7382245;19;20010;-73
2022/11/05 01:26:00;;;;;;;7.88;3.92;;;;;;;4.64;100.00;101724.31;7378857;19;20011;-73
2022/11/05 01:28:32;;;;;;;9.07;4.43;;;;;;;4.60;100.00;101715.44;7378787;19;20031;-73
2022/11/05 01:31:02;;;;;;;8.70;3.92;;;;;;;4.56;100.00;101721.31;7379687;19;20015;-73
2022/11/05 01:33:32;;;;;;;6.25;3.70;;;;;;;4.54;100.00;101720.34;7378409;19;20018;-73
2022/11/05 01:36:01;;;;;;;9.02;4.32;;;;;;;4.54;100.00;101716.03;7375989;19;20011;-72
2022/11/05 01:38:31;;;;;;;8.55;4.28;;;;;;;4.52;100.00;101719.38;7379327;19;20869;-73
2022/11/05 01:41:01;;;;;;;12.98;4.60;;;;;;;4.47;100.00;101721.72;7378911;19;20565;-73
2022/11/05 01:43:48;;;;;;;16.75;5.78;;;;;;;4.47;100.00;101724.31;7375906;19;20705;-73
2022/11/05 01:46:20;;;;;;;11.32;5.25;;;;;;;4.45;100.00;101725.06;7377048;19;20022;-71
2022/11/05 01:48:53;;;;;;;13.93;5.93;;;;;;;4.43;100.00;101724.97;7382793;19;20049;-71
2022/11/05 01:51:31;;;;;;;10.02;4.80;;;;;;;4.40;100.00;101722.22;7385962;19;20018;-72
2022/11/05 01:54:03;;;;;;;9.77;3.95;;;;;;;4.38;100.00;101720.34;7382268;19;20723;-72
2022/11/05 01:56:38;;;;;;;10.68;4.60;;;;;;;4.34;100.00;101724.50;7382095;19;20014;-72
2022/11/05 01:59:15;;;;;;;10.80;5.15;;;;;;;4.34;100.00;101721.00;7381753;19;20046;-72
2022/11/05 02:01:45;;;;;;;12.15;4.93;;;;;;;4.36;100.00;101730.66;7379090;19;20791;-72
2022/11/05 02:04:18;;;;;;;30.90;8.73;;;;;;;4.51;100.00;101733.16;7382667;19;20018;-72
2022/11/05 02:06:48;;;;;;;10.10;4.68;;;;;;;4.79;100.00;101733.75;7384520;19;21202;-72
2022/11/05 02:09:23;;;;;;;12.25;4.72;;;;;;;5.11;100.00;101726.69;7383370;19;20652;-72
2022/11/05 02:11:53;;;;;;;9.23;4.28;;;;;;;5.42;100.00;101737.72;7384272;19;20007;-72
2022/11/05 02:14:25;;;;;;;8.77;4.10;;;;;;;5.55;100.00;101736.63;7381028;19;20006;-72
2022/11/05 02:17:01;;;;;;;8.63;3.80;;;;;;;5.63;100.00;101736.97;7384461;19;20011;-72
2022/11/05 02:20:02;;;;;;;7.45;3.00;;;;;;;5.76;100.00;101718.53;7384814;19;20018;-70
2022/11/05 02:22:54;;;;;;;6.88;2.72;;;;;;;5.98;100.00;101723.94;7382402;19;20245;-70
2022/11/05 02:25:53;;;;;;;6.35;2.67;;;;;;;6.03;100.00;101727.63;7383378;19;20038;-70
2022/11/05 02:28:51;;;;;;;6.93;2.75;;;;;;;6.15;100.00;101724.69;7380384;19;20018;-70
2022/11/05 02:31:36;;;;;;;5.10;2.58;;;;;;;6.17;100.00;101726.53;7382514;19;20503;-70
2022/11/05 02:34:18;;;;;;;4.10;2.30;;;;;;;6.14;100.00;101725.53;7382028;19;20025;-70
2022/11/05 02:36:52;;;;;;;4.13;2.47;;;;;;;6.11;100.00;101723.66;7383966;19;20025;-70
2022/11/05 02:39:38;;;;;;;5.80;2.70;;;;;;;6.04;100.00;101711.19;7385938;19;20015;-72
2022/11/05 02:42:17;;;;;;;3.80;2.20;;;;;;;5.99;100.00;101723.09;7384596;19;20042;-72
2022/11/05 02:44:54;;;;;;;3.30;2.13;;;;;;;5.97;100.00;101724.75;7381292;19;20023;-72
2022/11/05 02:47:39;;;;;;;3.53;1.95;;;;;;;5.87;100.00;101715.59;7383472;19;20507;-72
2022/11/05 02:53:15;;;;;;;4.57;2.25;;;;;;;5.87;100.00;101715.59;7413447;19;20022;-94
2022/11/05 02:56:13;;;;;;;6.68;2.25;;;;;;;5.85;100.00;101713.75;7409174;19;20087;-94
2022/11/05 02:58:59;;;;;;;3.05;2.20;;;;;;;5.95;100.00;101721.19;7407610;19;20054;-94
2022/11/05 03:01:48;;;;;;;6.20;2.40;;;;;;;5.97;100.00;101714.34;7411721;19;20010;-95
2022/11/05 03:07:46;;;;;;;7.70;2.55;;;;;;;6.06;100.00;101719.97;7410611;19;20031;-95
2022/11/05 03:10:46;;;;;;;3.67;2.33;;;;;;;6.16;100.00;101722.16;7411530;19;20031;-94
2022/11/05 03:13:25;;;;;;;5.18;2.40;;;;;;;6.20;100.00;101724.09;7413793;19;20043;-94
2022/11/05 03:16:18;;;;;;;4.10;2.63;;;;;;;6.24;100.00;101738.09;7409112;19;20013;-95
2022/11/05 03:19:05;;;;;;;6.65;3.17;;;;;;;6.32;100.00;101738.44;7412187;19;20023;-94
2022/11/05 03:22:00;;;;;;;6.43;2.70;;;;;;;6.34;100.00;101731.59;7413476;19;20019;-94
2022/11/05 03:24:56;;;;;;;5.03;2.83;;;;;;;6.40;100.00;101724.03;7414009;19;20010;-95
2022/11/05 03:27:35;;;;;;;5.32;2.95;;;;;;;6.40;100.00;101731.88;7412445;19;20014;-94
2022/11/05 03:30:16;;;;;;;7.25;3.22;;;;;;;6.39;100.00;101730.97;7411142;19;20074;-92
2022/11/05 03:33:02;;;;;;;5.82;3.10;;;;;;;6.42;100.00;101727.59;7410769;19;20247;-92
2022/11/05 03:35:45;;;;;;;7.28;2.92;;;;;;;6.39;100.00;101719.66;7412429;19;20007;-94
2022/11/05 03:49:43;;;;;;;;;;;;;;;;;;;;;
2022/11/05 03:56:32;;;;;;;5.70;3.13;;;;;;;6.06;100.00;101722.56;7410493;19;20312;-93
2022/11/05 04:03:16;;;;;;;7.57;2.75;;;;;;;5.92;100.00;101722.75;7403748;19;20031;-94
2022/11/05 04:15:34;;;;;;;6.63;3.22;;;;;;;5.69;100.00;101732.06;7409555;19;20014;-95
2022/11/05 04:18:43;;;;;;;;;;;;;;;;;;;;;
2022/11/05 04:24:39;;;;;;;3.40;2.38;;;;;;;5.47;100.00;101731.03;7414632;19;20021;-92
2022/11/05 04:27:17;;;;;;;6.10;2.72;;;;;;;5.41;100.00;101735.94;7422713;19;20026;-93
2022/11/05 04:33:06;;;;;;;5.95;3.00;;;;;;;5.33;100.00;101742.50;7424269;19;20034;-94
2022/11/05 04:35:55;;;;;;;7.55;3.67;;;;;;;5.26;100.00;101748.22;7425688;19;20022;-93
2022/11/05 04:38:40;;;;;;;;;;;;;;;5.19;100.00;101756.56;7425921;19;20031;-94
2022/11/05 04:41:31;;;;;;;5.40;3.05;;;;;;;5.18;100.00;101752.19;7421748;19;19911;-94
2022/11/05 04:44:29;;;;;;;4.55;2.95;;;;;;;5.18;100.00;101753.06;7425736;19;20018;-94
2022/11/05 04:47:10;;;;;;;4.85;2.80;;;;;;;5.19;100.00;101753.97;7424101;19;20003;-95
2022/11/05 04:59:41;;;;;;;8.75;3.72;;;;;;;5.35;100.00;101759.06;7411233;19;20048;-95
2022/11/05 05:02:28;;;;;;;6.68;3.25;;;;;;;5.44;100.00;101754.31;7415065;19;20030;-94
2022/11/05 05:05:26;;;;;;;5.22;3.13;;;;;;;5.52;100.00;101757.28;7414701;19;20014;-95
2022/11/05 05:11:27;;;;;;;4.68;2.53;;;;;;;5.84;100.00;101751.91;7370720;19;20036;-73
2022/11/05 05:13:56;;;;;;;7.22;3.22;;;;;;;5.90;100.00;101753.94;7373299;19;20015;-73
2022/11/05 05:16:27;;;;;;;5.50;2.58;;;;;;;5.93;100.00;101742.75;7377724;19;20025;-73
2022/11/05 05:18:57;;;;;;;7.78;2.53;;;;;;;5.90;100.00;101753.94;7374094;19;20018;-74
2022/11/05 05:21:39;;;;;;;4.63;2.42;;;;;;;5.94;100.00;101754.97;7375481;19;20021;-74
2022/11/05 05:24:14;;;;;;;4.97;2.83;;;;;;;5.88;100.00;101760.75;7375843;19;20038;-73
2022/11/05 05:26:48;;;;;;;6.25;2.47;;;;;;;5.82;100.00;101755.25;7374989;19;20029;-73
2022/11/05 05:29:18;;;;;;;6.90;2.97;;;;;;;5.79;100.00;101755.09;7376440;19;20017;-73
2022/11/05 05:31:48;;;;;;;3.72;2.65;;;;;;;5.76;100.00;101755.84;7372219;19;20034;-73
2022/11/05 05:34:18;;;;;;;8.48;2.85;;;;;;;5.81;100.00;101751.75;7377461;19;20015;-73
2022/11/05 05:36:47;;;;;;;5.53;3.20;;;;;;;5.83;100.00;101747.50;7375768;19;20025;-74
2022/11/05 05:39:17;;;;;;;8.15;2.97;;;;;;;5.80;100.00;101751.69;7377907;19;20026;-73
2022/11/05 05:41:49;;;;;;;7.30;3.40;;;;;;;5.80;100.00;101757.78;7373830;19;20041;-73
2022/11/05 05:44:19;;;;;;;6.97;2.88;;;;;;;5.81;100.00;101758.66;7375864;19;20021;-73
2022/11/05 05:46:48;;;;;;;6.25;2.80;;;;;;;5.77;100.00;101764.56;7375876;19;20038;-73
2022/11/05 05:49:18;;;;;;;8.10;3.58;;;;;;;5.73;100.00;101760.03;7370806;19;20043;-73
2022/11/05 05:51:49;;;;;;;9.23;3.83;;;;;;;5.71;100.00;101762.56;7371920;19;20014;-73
2022/11/05 05:54:19;;;;;;;7.30;3.80;;;;;;;5.78;100.00;101764.63;7371317;19;20040;-73
2022/11/05 05:56:51;;;;;;;10.30;4.15;;;;;;;5.81;100.00;101764.75;7375520;19;20015;-73
2022/11/05 05:59:21;;;;;;;10.80;4.50;;;;;;;5.86;100.00;101760.66;7371510;19;20010;-73
2022/11/05 06:01:51;;;;;;;11.82;4.85;;;;;;;5.88;100.00;101768.56;7375692;19;20025;-73
2022/11/05 06:04:21;;;;;;;11.43;5.38;;;;;;;5.96;100.00;101780.25;7373620;19;20085;-73
2022/11/05 06:06:50;;;;;;;9.55;4.90;;;;;;;5.94;100.00;101771.47;7372316;19;20356;-73
2022/11/05 06:09:20;;;;;;;12.40;5.90;;;;;;;5.89;100.00;101772.97;7373622;19;20017;-73
2022/11/05 06:11:52;;;;;;;13.63;5.97;;;;;;;5.99;100.00;101775.19;7373838;19;20010;-73
2022/11/05 06:14:22;;;;;;;12.38;5.90;;;;;;;5.93;100.00;101774.91;7374889;19;20010;-73
2022/11/05 06:16:51;;;;;;;12.13;5.78;;;;;;;5.95;100.00;101777.56;7375351;19;20446;-73
2022/11/05 06:19:21;;;;;;;14.32;6.40;;;;;;;5.98;100.00;101778.63;7376177;19;20014;-73
2022/11/05 06:21:50;;;;;;;14.10;7.40;;;;;;;5.91;100.00;101781.75;7376078;19;20152;-72
2022/11/05 06:24:20;;;;;;;14.55;7.15;;;;;;;5.85;100.00;101789.22;7373279;19;20013;-72
2022/11/05 06:26:52;;;;;;;15.48;7.13;;;;;;;5.79;100.00;101786.34;7374142;19;20015;-73
2022/11/05 06:29:22;;;;;;;13.23;6.00;;;;;;;5.77;100.00;101782.78;7373167;19;20014;-73
2022/11/05 06:31:51;;;;;;;10.68;5.78;;;;;;;5.78;100.00;101785.44;7374461;19;20022;-72
2022/11/05 06:34:21;;;;;;;17.75;7.88;;;;;;;5.84;100.00;101792.66;7375917;19;20014;-73
2022/11/05 06:36:50;;;;;;;15.70;7.80;;;;;;;5.86;100.00;101789.31;7381934;19;20099;-73
2022/11/05 06:39:20;;;;;;;14.30;7.50;;;;;;;5.88;100.00;101787.66;7380921;19;20011;-72
2022/11/05 06:41:52;;;;;;;11.73;7.07;;;;;;;5.89;100.00;101788.59;7379403;19;20022;-72
2022/11/05 06:44:42;;;;;;;16.27;8.00;;;;;;;5.86;100.00;101789.31;7380261;19;20011;-72
2022/11/05 06:47:13;;;;;;;15.65;8.15;;;;;;;5.88;100.00;101791.97;7381629;19;20006;-73
2022/11/05 06:49:43;;;;;;;12.75;7.72;;;;;;;5.85;100.00;101790.13;7382280;19;20011;-72
2022/11/05 06:52:14;;;;;;;17.58;9.32;;;;;;;5.94;100.00;101789.69;7377839;19;20018;-72
2022/11/05 06:54:44;;;;;;;17.40;8.80;;;;;;;5.87;100.00;101793.69;7378975;19;20030;-72
2022/11/05 06:57:16;;;;;;;18.75;9.35;;;;;;;5.88;100.00;101791.97;7378722;19;20015;-72
2022/11/05 06:59:46;;;;;;;15.80;8.57;;;;;;;5.88;100.00;101797.19;7375244;19;20038;-72
2022/11/05 07:02:17;;;;;;;17.45;9.43;;;;;;;5.90;100.00;101800.78;7376334;19;20013;-72
2022/11/05 07:04:46;;;;;;;13.85;8.52;;;;;;;5.86;100.00;101804.94;7381455;19;20058;-71
2022/11/05 07:07:16;;;;;;;15.57;8.25;;;;;;;5.86;100.00;101801.44;7381105;19;20042;-72
2022/11/05 07:09:45;;;;;;;17.48;8.75;;;;;;;5.88;100.00;101802.41;7380231;19;20010;-72
2022/11/05 07:12:18;;;;;;;18.95;9.63;;;;;;;5.86;100.00;101804.03;7376828;19;20043;-72
2022/11/05 07:14:47;;;;;;;15.85;8.45;;;;;;;5.88;100.00;101810.22;7376789;19;20041;-72
2022/11/05 07:17:19;;;;;;;16.92;8.95;;;;;;;5.86;100.00;101809.25;7381392;19;20018;-72
2022/11/05 07:19:48;;;;;;;13.52;8.43;;;;;;;5.84;100.00;101805.66;7379150;19;20657;-72
2022/11/05 07:22:18;;;;;;;17.33;10.15;;;;;;;5.86;100.00;101809.25;7377786;19;20025;-72
2022/11/05 07:24:48;;;;;;;15.25;8.60;;;;;;;5.88;100.00;101802.41;7379758;19;20014;-72
2022/11/05 07:27:21;;;;;;;16.17;8.70;;;;;;;5.88;100.00;101802.41;7379660;19;20034;-72
2022/11/05 07:29:50;;;;;;;18.35;7.95;;;;;;;5.94;100.00;101807.94;7377632;19;20006;-72
2022/11/05 07:32:20;;;;;;;15.23;8.40;;;;;;;6.03;100.00;101807.47;7379176;19;20348;-72
2022/11/05 07:34:49;;;;;;;15.23;8.85;;;;;;;6.10;100.00;101805.22;7377073;19;20346;-71
2022/11/05 07:37:19;;;;;;;15.43;8.65;;;;;;;6.26;100.00;101805.91;7377459;19;20023;-71
2022/11/05 07:39:49;;;;;;;14.65;9.20;;;;;;;6.37;100.00;101809.88;7374041;19;20011;-72
2022/11/05 07:42:21;;;;;;;16.85;8.70;;;;;;;6.44;100.00;101811.94;7377688;19;20030;-71
2022/11/05 07:44:50;;;;;;;15.90;9.65;;;;;;;6.51;100.00;101814.00;7379222;19;20037;-71
2022/11/05 07:47:20;;;;;;;17.67;9.73;;;;;;;6.62;100.00;101812.78;7376011;19;20051;-71
2022/11/05 07:49:49;;;;;;;18.10;10.35;;;;;;;6.69;100.00;101812.22;7377719;19;20448;-74
2022/11/05 07:52:19;;;;;;;15.15;9.18;;;;;;;6.77;100.00;101815.19;7371145;19;20050;-71
2022/11/05 07:54:49;;;;;;;17.98;10.45;;;;;;;6.84;100.00;101815.50;7375449;19;20038;-72
2022/11/05 07:57:21;;;;;;;18.38;9.73;;;;;;;6.90;100.00;101814.88;7375242;19;20302;-72
2022/11/05 07:59:50;;;;;;;16.85;8.88;;;;;;;6.93;100.00;101804.59;7377196;19;20014;-72
2022/11/05 08:02:20;;;;;;;15.60;8.38;;;;;;;6.96;100.00;101803.84;7377572;19;20020;-72
2022/11/05 08:04:50;;;;;;;17.23;9.10;;;;;;;6.98;100.00;101807.41;7376732;19;20439;-72
2022/11/05 08:07:19;;;;;;;15.45;9.05;;;;;;;7.05;100.00;101802.50;7376168;19;20014;-71
2022/11/05 08:09:49;;;;;;;16.80;8.85;;;;;;;7.12;100.00;101801.06;7371371;19;20111;-72
2022/11/05 08:12:21;;;;;;;16.50;9.25;;;;;;;7.20;100.00;101803.16;7369852;19;20018;-72
2022/11/05 08:14:51;;;;;;;15.95;9.15;;;;;;;7.26;100.00;101805.13;7374334;19;20017;-71
2022/11/05 08:17:21;;;;;;;15.07;8.40;;;;;;;7.35;100.00;101809.81;7369779;19;20769;-72
2022/11/05 08:19:50;;;;;;;18.13;8.48;;;;;;;7.40;100.00;101814.41;7373717;19;20526;-71
2022/11/05 08:22:20;;;;;;;15.73;8.07;;;;;;;7.43;100.00;101808.41;7374848;19;20649;-72
2022/11/05 08:24:49;;;;;;;17.13;8.20;;;;;;;7.47;100.00;101810.31;7375615;19;20006;-71
2022/11/05 08:27:22;;;;;;;11.80;6.95;;;;;;;7.52;100.00;101809.69;7373317;19;20042;-72
2022/11/05 08:29:51;;;;;;;12.82;6.95;;;;;;;7.55;100.00;101804.59;7372961;19;20022;-72
2022/11/05 08:35:47;;;;;;;11.27;6.22;;;;;;;7.64;100.00;101808.41;7359699;19;20006;-72
2022/11/05 08:38:19;;;;;;;11.07;6.25;;;;;;;7.64;100.00;101798.84;7371568;19;20014;-72
2022/11/05 08:40:57;;;;;;;12.00;6.32;;;;;;;7.70;100.00;101803.44;7358856;19;20035;-71
2022/11/05 08:46:12;;;;;;;11.23;6.30;;;;;;;7.82;100.00;101810.03;7374796;19;20098;-71
2022/11/05 08:48:41;;;;;;;15.05;7.07;;;;;;;7.87;100.00;101818.06;7374037;19;20059;-70
2022/11/05 08:51:11;;;;;;;14.25;6.60;;;;;;;7.93;100.00;101815.69;7378633;19;20007;-70
2022/11/05 08:53:41;;;;;;;22.30;6.35;;;;;;;7.99;100.00;101823.75;7376030;19;20030;-71
2022/11/05 08:56:10;;;;;;;15.43;6.07;;;;;;;8.11;100.00;101818.13;7374528;19;20106;-71
2022/11/05 08:58:40;;;;;;;14.38;6.10;;;;;;;8.25;100.00;101813.44;7376313;19;20074;-71
2022/11/05 09:01:12;;;;;;;13.55;6.10;;;;;;;8.33;100.00;101806.78;7379248;19;20018;-71
2022/11/05 09:03:42;;;;;;;11.15;5.50;;;;;;;8.44;100.00;101813.28;7376365;19;20014;-71
2022/11/05 09:06:12;;;;;;;12.48;6.82;;;;;;;8.53;100.00;101805.78;7377579;19;20377;-71
2022/11/05 09:08:41;;;;;;;9.35;5.38;;;;;;;8.62;100.00;101815.69;7374984;19;20025;-71
2022/11/05 09:11:11;;;;;;;12.40;6.10;;;;;;;8.71;100.00;101814.31;7374910;19;20014;-70
2022/11/05 09:13:40;;;;;;;14.07;5.90;;;;;;;8.77;100.00;101819.75;7371898;19;20462;-71
2022/11/05 09:16:20;;;;;;;11.73;4.97;;;;;;;8.85;100.00;101818.31;7373361;19;20754;-71
2022/11/05 09:18:50;;;;;;;11.77;4.85;;;;;;;8.92;100.00;101824.66;7375759;19;20010;-70
2022/11/05 09:21:20;;;;;;;8.35;4.15;;;;;;;8.99;100.00;101818.81;7378219;19;20045;-71
2022/11/05 09:23:50;;;;;;;7.22;3.70;;;;;;;9.08;100.00;101826.09;7376071;19;20021;-70
2022/11/05 09:26:19;;;;;;;11.90;5.13;;;;;;;9.18;100.00;101822.94;7374971;19;20011;-70
2022/11/05 09:28:49;;;;;;;9.45;3.97;;;;;;;9.22;100.00;101822.22;7374603;19;20013;-72
2022/11/05 09:31:21;;;;;;;9.18;4.53;;;;;;;9.30;100.00;101826.00;7377209;19;20014;-71
2022/11/05 09:33:51;;;;;;;12.73;5.18;;;;;;;9.34;100.00;101835.72;7378014;19;20124;-71
2022/11/05 09:36:20;;;;;;;7.45;3.95;;;;;;;9.38;100.00;101828.84;7374309;19;20466;-69
2022/11/05 09:38:50;;;;;;;13.40;5.47;;;;;;;9.39;100.00;101836.75;7371435;19;20014;-69
2022/11/05 09:41:28;;;;;;;12.55;4.13;;;;;;;9.42;100.00;101826.38;7377149;19;20094;-69
2022/11/05 09:44:00;;;;;;;11.82;4.60;;;;;;;9.43;100.00;101830.75;7377457;19;20018;-69
2022/11/05 09:46:41;;;;;;;8.05;3.95;;;;;;;9.48;100.00;101829.19;7374892;19;20018;-69
2022/11/05 09:49:24;;;;;;;9.38;4.57;;;;;;;9.48;100.00;101834.44;7373770;19;20019;-70
2022/11/05 09:51:57;;;;;;;7.88;3.45;;;;;;;9.52;100.00;101824.94;7374183;19;20018;-70
2022/11/05 09:54:30;;;;;;;6.13;3.40;;;;;;;9.59;100.00;101826.94;7375095;19;20007;-70
2022/11/05 09:57:01;;;;;;;8.80;3.83;;;;;;;9.58;100.00;101824.25;7375439;19;20010;-70
2022/11/05 09:59:35;;;;;;;6.70;3.60;;;;;;;9.61;100.00;101813.88;7376530;19;20010;-70
2022/11/05 10:02:18;;;;;;;9.05;4.20;;;;;;;9.66;100.00;101822.78;7375285;19;20010;-70
2022/11/05 10:04:51;;;;;;;8.73;4.00;;;;;;;9.69;100.00;101822.88;7374903;19;20430;-70
2022/11/05 10:07:24;;;;;;;6.67;4.10;;;;;;;9.80;100.00;101818.88;7375688;19;20023;-70
2022/11/05 10:09:59;;;;;;;8.95;4.10;;;;;;;9.81;100.00;101821.56;7378250;19;20270;-70
2022/11/05 10:12:33;;;;;;;15.13;4.55;;;;;;;9.79;100.00;101820.63;7380974;19;20011;-70
2022/11/05 10:15:12;;;;;;;11.32;4.25;;;;;;;9.82;100.00;101819.81;7379813;19;20528;-70
2022/11/05 10:17:50;;;;;;;11.02;3.92;;;;;;;9.77;100.00;101810.91;7379239;19;20022;-70
2022/11/05 10:20:29;;;;;;;10.77;4.22;;;;;;;9.77;100.00;101811.81;7378162;19;20026;-70
2022/11/05 10:23:02;;;;;;;13.52;4.20;;;;;;;9.78;100.00;101818.81;7379708;19;20011;-72
2022/11/05 10:25:37;;;;;;;10.52;4.07;;;;;;;9.87;100.00;101818.22;7377836;19;20018;-72
2022/11/05 10:28:08;;;;;;;9.73;4.63;;;;;;;9.88;100.00;101825.25;7378675;19;20230;-72
2022/11/05 10:30:38;;;;;;;10.98;3.92;;;;;;;9.95;100.00;101816.75;7381680;19;20015;-72
2022/11/05 10:33:14;;;;;;;7.85;4.00;;;;;;;10.19;100.00;101826.22;7382050;19;20018;-72
2022/11/05 10:35:56;;;;;;;10.00;4.65;;;;;;;10.25;100.00;101826.44;7384280;19;20015;-72
2022/11/05 10:38:26;;;;;;;9.82;3.90;;;;;;;10.29;100.00;101817.81;7381344;19;20025;-72
2022/11/05 10:41:05;;;;;;;8.82;4.25;;;;;;;10.28;100.00;101819.53;7381728;19;20014;-72
2022/11/05 10:43:42;;;;;;;8.98;4.00;;;;;;;10.36;100.00;101822.41;7381081;19;20225;-72
2022/11/05 10:46:31;;;;;;;9.23;3.92;;;;;;;10.53;100.00;101821.13;7382986;19;20014;-71
2022/11/05 10:49:17;;;;;;;12.45;5.00;;;;;;;10.59;100.00;101828.28;7381108;19;20801;-71
2022/11/05 10:51:53;;;;;;;8.23;3.75;;;;;;;10.72;100.00;101820.81;7377598;19;20090;-71
2022/11/05 10:54:26;;;;;;;7.82;3.78;;;;;;;10.77;100.00;101818.31;7379323;19;20010;-71
2022/11/05 10:56:55;;;;;;;9.93;3.83;;;;;;;10.84;100.00;101808.88;7383197;19;20026;-71
2022/11/05 10:59:27;;;;;;;8.45;3.90;;;;;;;10.78;100.00;101809.59;7381519;19;20014;-71
2022/11/05 11:01:58;;;;;;;7.28;3.40;;;;;;;10.65;100.00;101825.84;7382405;19;20022;-72
2022/11/05 11:04:32;;;;;;;8.57;3.75;;;;;;;10.60;100.00;101830.94;7382042;19;20014;-72
2022/11/05 11:07:06;;;;;;;6.97;3.17;;;;;;;10.62;100.00;101829.25;7384504;19;20010;-71
2022/11/05 11:09:38;;;;;;;6.93;3.13;;;;;;;10.57;100.00;101823.00;7380656;19;20012;-71
2022/11/05 11:12:17;;;;;;;7.60;3.45;;;;;;;10.59;100.00;101829.16;7382142;19;20030;-72
2022/11/05 11:15:02;;;;;;;8.95;3.47;;;;;;;10.63;100.00;101831.03;7371320;19;20025;-72
2022/11/05 11:17:34;;;;;;;6.07;3.08;;;;;;;10.68;100.00;101829.44;7384292;19;20013;-71
2022/11/05 11:20:25;;;;;;;8.55;3.33;;;;;;;10.70;100.00;101830.38;7370147;19;20513;-71
2022/11/05 11:23:07;;;;;;;6.88;2.95;;;;;;;10.77;100.00;101819.19;7375788;19;20234;-71
2022/11/05 11:25:46;;;;;;;7.13;3.58;;;;;;;10.78;100.00;101823.59;7380873;19;20019;-71
2022/11/05 11:28:21;;;;;;;7.63;3.20;;;;;;;10.78;100.00;101817.47;7379147;19;20025;-71
2022/11/05 11:30:56;;;;;;;9.10;3.35;;;;;;;10.81;100.00;101815.81;7381131;19;20010;-72
2022/11/05 11:33:29;;;;;;;11.18;3.42;;;;;;;10.80;100.00;101819.28;7375619;19;20017;-71
2022/11/05 11:36:02;;;;;;;7.10;3.25;;;;;;;10.86;100.00;101817.69;7378284;19;20011;-71
2022/11/05 11:38:37;;;;;;;7.93;3.00;;;;;;;10.82;100.00;101821.94;7382024;19;20923;-72
2022/11/05 11:41:19;;;;;;;10.93;3.58;;;;;;;10.92;100.00;101818.75;7383632;19;20018;-72
2022/11/05 11:43:49;;;;;;;7.53;2.95;;;;;;;10.95;100.00;101823.19;7381474;19;20291;-72
2022/11/05 11:46:22;;;;;;;7.82;3.15;;;;;;;11.10;100.00;101823.59;7382227;19;20014;-72
2022/11/05 11:48:54;;;;;;;10.98;3.35;;;;;;;10.99;100.00;101814.53;7383255;19;20022;-70
2022/11/05 11:51:39;;;;;;;8.35;3.13;;;;;;;10.97;100.00;101818.88;7376602;19;20018;-72
2022/11/05 11:54:21;;;;;;;10.48;3.60;;;;;;;11.02;100.00;101830.38;7377215;19;20029;-72
2022/11/05 11:56:57;;;;;;;6.82;2.75;;;;;;;10.99;100.00;101817.16;7379958;19;20281;-72
2022/11/05 11:59:29;;;;;;;6.50;3.05;;;;;;;11.00;100.00;101826.81;7379771;19;20364;-73
2022/11/05 12:02:39;;;;;;;6.30;2.60;;;;;;;10.93;100.00;101822.25;7378305;19;20022;-73
2022/11/05 12:05:25;;;;;;;7.22;3.00;;;;;;;10.99;100.00;101809.28;7376633;19;20025;-72
2022/11/05 12:08:02;;;;;;;5.72;2.80;;;;;;;11.05;100.00;101812.09;7378283;19;20015;-71
2022/11/05 12:10:45;;;;;;;7.22;2.63;;;;;;;11.03;100.00;101805.91;7380175;19;20078;-71
2022/11/05 12:13:48;;;;;;;8.77;3.22;;;;;;;11.08;100.00;101809.53;7377504;19;20015;-72
2022/11/05 12:16:28;;;;;;;7.47;2.85;;;;;;;11.09;100.00;101801.72;7381107;19;20018;-72
2022/11/05 12:19:07;;;;;;;7.93;2.70;;;;;;;11.12;100.00;101799.16;7379145;19;20097;-72
2022/11/05 12:21:48;;;;;;;6.85;2.72;;;;;;;11.18;100.00;101801.06;7375303;19;20017;-71
2022/11/05 12:24:53;;;;;;;6.85;2.75;;;;;;;11.15;100.00;101798.34;7377613;19;20019;-73
2022/11/05 12:27:35;;;;;;;7.13;3.10;;;;;;;11.18;100.00;101780.06;7378816;19;20021;-73
2022/11/05 12:30:09;;;;;;;10.05;3.35;;;;;;;11.14;100.00;101786.06;7379174;19;20038;-73
2022/11/05 12:33:00;;;;;;;5.50;3.17;;;;;;;11.06;100.00;101779.72;7374601;19;20108;-73
2022/11/05 12:35:47;;;;;;;8.05;3.45;;;;;;;11.09;100.00;101780.69;7375288;19;20015;-73
2022/11/05 12:38:39;;;;;;;6.57;3.03;;;;;;;11.13;100.00;101785.19;7378400;19;20042;-73
2022/11/05 12:41:18;;;;;;;;;;;;;;;11.11;100.00;101779.00;7374905;19;20014;-73
2022/11/05 12:44:03;;;;;;;9.15;3.78;;;;;;;11.08;100.00;101778.03;7379046;19;19937;-73
2022/11/05 12:46:39;;;;;;;10.10;3.83;;;;;;;11.00;100.00;101775.22;7378811;19;20560;-73
2022/11/05 12:49:47;;;;;;;12.45;4.28;;;;;;;11.01;100.00;101774.38;7377209;19;20029;-73
2022/11/05 12:52:44;;;;;;;10.25;4.13;;;;;;;11.03;100.00;101771.78;7379361;19;20179;-73
2022/11/05 12:55:19;;;;;;;9.05;3.90;;;;;;;11.01;100.00;101768.22;7382175;19;20471;-74
2022/11/05 12:57:55;;;;;;;9.20;3.78;;;;;;;11.02;100.00;101757.78;7379041;19;20034;-73
2022/11/05 13:00:26;;;;;;;9.65;4.43;;;;;;;11.05;100.00;101756.97;7380472;19;20218;-74
2022/11/05 13:03:16;;;;;;;9.50;4.22;;;;;;;11.09;100.00;101756.19;7379031;19;20011;-74
2022/11/05 13:05:50;;;;;;;8.70;4.07;;;;;;;11.01;100.00;101755.09;7380033;19;20115;-73
2022/11/05 13:08:25;;;;;;;8.50;3.97;;;;;;;10.92;100.00;101753.13;7376295;19;20014;-73
2022/11/05 13:10:58;;;;;;;8.93;4.35;;;;;;;10.86;100.00;101749.44;7378966;19;20015;-73
2022/11/05 13:13:32;;;;;;;;;;;;;;;10.84;100.00;101741.53;7379297;19;20010;-74
2022/11/05 13:16:11;;;;;;;11.38;3.83;;;;;;;10.80;100.00;101734.44;7376609;19;19919;-74
2022/11/05 13:18:46;;;;;;;10.50;3.78;;;;;;;10.76;100.00;101736.09;7377880;19;20015;-74
2022/11/05 13:21:17;;;;;;;10.25;5.40;;;;;;;10.71;100.00;101729.81;7378149;19;20010;-74
2022/11/05 13:23:51;;;;;;;9.05;3.97;;;;;;;10.75;100.00;101733.41;7378865;19;20015;-74
2022/11/05 13:26:26;;;;;;;9.25;4.32;;;;;;;10.74;100.00;101729.91;7377571;19;20010;-74